LEVC/VLC METAR and TAF weather

Enter ICAO airport designator
Station Type Date Time Source
LEVC METAR 2019/05/27 10:00 UTC NOAA

LEVC 271000Z VRB04KT CAVOK 25/09 Q1012 NOSIG


Station Type Date Time Source
LEVC Decoded METAR 2019/05/27 10:00 UTC NOAA

Valencia / Aeropuerto, Spain (LEVC) 39-30N 000-28W 62M
May 27, 2019 - 06:00 AM EDT / 2019.05.27 1000 UTC
Wind: Variable at 5 MPH (4 KT):0
Visibility: greater than 7 mile(s):0
Temperature: 77 F (25 C)
Dew Point: 48 F (9 C)
Relative Humidity: 36%
Pressure (altimeter): 29.88 in. Hg (1012 hPa)
ob: LEVC 271000Z VRB04KT CAVOK 25/09 Q1012 NOSIG
cycle: 10

Station Type Date Time Source
LEVC TAF 2019/05/27 06:27 UTC NOAA

TAF LEVC 270500Z 2706/2806 27004KT 9999 FEW040 TX25/2712Z TN14/2706Z
BECMG 2708/2710 12010KT PROB30
TEMPO 2713/2718 FEW040TCU
BECMG 2718/2720 VRB04KT

Example: see airport list